createdAt,value
2023-01-30T00:04:49.047Z,1014.99
2023-01-30T00:11:11.993Z,1014.89
2023-01-30T00:17:31.996Z,1014.87
2023-01-30T00:23:54.991Z,1014.75
2023-01-30T00:30:15.029Z,1014.58
2023-01-30T00:36:38.044Z,1014.44
2023-01-30T00:42:57.972Z,1014.36
2023-01-30T00:49:21.048Z,1014.26
2023-01-30T00:55:40.974Z,1014.22
2023-01-30T01:02:04.137Z,1014.13
2023-01-30T01:08:23.979Z,1014.05
2023-01-30T01:14:47.005Z,1013.97
2023-01-30T01:21:07.012Z,1013.79
2023-01-30T01:27:30.018Z,1013.77
2023-01-30T01:33:49.975Z,1013.83
2023-01-30T01:40:12.984Z,1013.77
2023-01-30T01:46:33.020Z,1013.79
2023-01-30T01:52:56.010Z,1013.74
2023-01-30T01:59:15.999Z,1013.62
2023-01-30T02:05:39.022Z,1013.56
2023-01-30T02:11:59.110Z,1013.52
2023-01-30T02:18:21.990Z,1013.48
2023-01-30T02:24:41.994Z,1013.42
2023-01-30T02:31:05.114Z,1013.28
2023-01-30T02:37:24.978Z,1013.08
2023-01-30T02:43:48.005Z,1012.92
2023-01-30T02:50:08.005Z,1012.77
2023-01-30T02:56:31.025Z,1012.67
2023-01-30T03:02:51.171Z,1012.59
2023-01-30T03:09:14.021Z,1012.53
2023-01-30T03:15:33.968Z,1012.51
2023-01-30T03:21:57.020Z,1012.43
2023-01-30T03:28:16.998Z,1012.36
2023-01-30T03:34:40.001Z,1012.28
2023-01-30T03:41:00.007Z,1012.2
2023-01-30T03:47:23.082Z,1012.08
2023-01-30T03:53:43.017Z,1011.95
2023-01-30T04:00:05.982Z,1011.85
2023-01-30T04:06:26.044Z,1011.75
2023-01-30T04:28:20.023Z,1011.34
2023-01-30T04:34:43.066Z,1011.28
2023-01-30T04:41:02.990Z,1011.26
2023-01-30T04:47:26.037Z,1011.18
2023-01-30T04:53:46.000Z,1011.12
2023-01-30T05:00:08.999Z,1011.1
2023-01-30T05:06:29.054Z,1011.14
2023-01-30T05:12:51.981Z,1011.05
2023-01-30T05:19:12.022Z,1010.95
2023-01-30T05:25:35.225Z,1010.85
2023-01-30T05:31:55.004Z,1010.83
2023-01-30T05:38:17.984Z,1010.81
2023-01-30T05:44:38.007Z,1010.75
2023-01-30T05:51:01.036Z,1010.77
2023-01-30T05:57:20.992Z,1010.75
2023-01-30T06:03:44.132Z,1010.77
2023-01-30T06:10:04.014Z,1010.79
2023-01-30T06:16:27.014Z,1010.75
2023-01-30T06:22:47.103Z,1010.75
2023-01-30T06:29:10.022Z,1010.75
2023-01-30T06:35:30.018Z,1010.81
2023-01-30T06:41:53.029Z,1010.93
2023-01-30T06:48:13.015Z,1010.99
2023-01-30T06:54:36.026Z,1010.97
2023-01-30T07:00:56.057Z,1010.93
2023-01-30T07:07:19.035Z,1010.97
2023-01-30T07:13:39.043Z,1011.07
2023-01-30T07:20:02.028Z,1011.2
2023-01-30T07:26:22.033Z,1011.22
2023-01-30T07:32:44.992Z,1011.22
2023-01-30T07:39:05.041Z,1011.18
2023-01-30T07:45:27.985Z,1011.16
2023-01-30T07:51:47.979Z,1011.24
2023-01-30T07:58:11.048Z,1011.28
2023-01-30T08:04:31.041Z,1011.36
2023-01-30T08:10:54.043Z,1011.4
2023-01-30T08:17:14.012Z,1011.4
2023-01-30T08:23:36.992Z,1011.42
2023-01-30T08:29:57.062Z,1011.42
2023-01-30T08:36:20.032Z,1011.42
2023-01-30T08:42:40.024Z,1011.38
2023-01-30T08:49:03.077Z,1011.48
2023-01-30T08:55:23.001Z,1011.61
2023-01-30T09:01:46.006Z,1011.59
2023-01-30T09:08:06.055Z,1011.57
2023-01-30T09:38:29.024Z,1011.71
2023-01-30T09:44:49.000Z,1011.61
2023-01-30T09:51:12.017Z,1011.65
2023-01-30T09:57:32.059Z,1011.63
2023-01-30T10:03:55.005Z,1011.63
2023-01-30T10:10:15.030Z,1011.59
2023-01-30T10:16:38.035Z,1011.65
2023-01-30T10:22:57.999Z,1011.71
2023-01-30T10:29:21.016Z,1011.79
2023-01-30T10:35:41.031Z,1011.77
2023-01-30T10:42:04.236Z,1011.81
2023-01-30T10:48:31.336Z,1011.87
2023-01-30T10:54:47.032Z,1011.83
2023-01-30T11:01:07.048Z,1011.85
2023-01-30T11:07:29.997Z,1011.96
2023-01-30T11:13:50.033Z,1012.02
2023-01-30T11:20:13.626Z,1012.04
2023-01-30T11:26:45.448Z,1011.98
2023-01-30T11:32:56.089Z,1012.06
2023-01-30T11:39:16.056Z,1012.04
2023-01-30T11:45:39.062Z,1012.06
2023-01-30T11:51:59.109Z,1012
2023-01-30T11:58:21.999Z,1011.96
2023-01-30T12:04:42.046Z,1012
2023-01-30T12:11:05.008Z,1011.98
2023-01-30T12:17:24.994Z,1011.98
2023-01-30T12:23:49.005Z,1011.98
2023-01-30T12:30:09.025Z,1012.04
2023-01-30T12:36:30.051Z,1012.06
2023-01-30T12:42:49.995Z,1012.1
2023-01-30T12:49:13.328Z,1012.1
2023-01-30T12:55:32.974Z,1012.14
2023-01-30T13:01:56.036Z,1012.18
2023-01-30T13:08:16.075Z,1012.26
2023-01-30T13:14:39.023Z,1012.34
2023-01-30T13:21:00.405Z,1012.38
2023-01-30T13:27:22.015Z,1012.4
2023-01-30T13:33:43.687Z,1012.45
2023-01-30T13:40:05.014Z,1012.53
2023-01-30T13:46:25.075Z,1012.63
2023-01-30T13:52:47.996Z,1012.69
2023-01-30T13:59:08.840Z,1012.73
2023-01-30T14:05:40.081Z,1012.79
2023-01-30T14:11:51.145Z,1012.9
2023-01-30T14:34:57.027Z,1013.3
2023-01-30T14:41:20.016Z,1013.38
2023-01-30T14:47:44.981Z,1013.44
2023-01-30T14:54:03.041Z,1013.48
2023-01-30T15:00:23.015Z,1013.54
2023-01-30T15:06:46.019Z,1013.54
2023-01-30T15:13:06.007Z,1013.62
2023-01-30T15:19:29.004Z,1013.74
2023-01-30T15:25:48.991Z,1013.83
2023-01-30T15:32:12.209Z,1013.91
2023-01-30T15:38:32.116Z,1013.99
2023-01-30T15:44:55.051Z,1014.07
2023-01-30T15:51:15.078Z,1014.19
2023-01-30T15:57:38.016Z,1014.26
2023-01-30T16:03:58.022Z,1014.34
2023-01-30T16:10:21.383Z,1014.46
2023-01-30T16:16:41.041Z,1014.6
2023-01-30T16:23:04.049Z,1014.75
2023-01-30T16:29:24.011Z,1014.93
2023-01-30T16:35:47.011Z,1015.05
2023-01-30T16:42:06.995Z,1015.18
2023-01-30T16:48:30.036Z,1015.28
2023-01-30T16:54:49.995Z,1015.34
2023-01-30T17:01:13.082Z,1015.4
2023-01-30T17:07:33.045Z,1015.5
2023-01-30T17:13:55.986Z,1015.63
2023-01-30T17:20:16.013Z,1015.82
2023-01-30T17:26:40.678Z,1015.92
2023-01-30T17:32:59.013Z,1015.98
2023-01-30T17:39:22.027Z,1016.03
2023-01-30T17:45:42.031Z,1016.09
2023-01-30T17:52:05.043Z,1016.17
2023-01-30T17:58:25.002Z,1016.23
2023-01-30T18:04:48.013Z,1016.31
2023-01-30T18:11:08.005Z,1016.41
2023-01-30T18:17:31.004Z,1016.48
2023-01-30T18:23:51.049Z,1016.6
2023-01-30T18:30:16.672Z,1016.68
2023-01-30T18:36:33.974Z,1016.74
2023-01-30T18:42:57.047Z,1016.8
2023-01-30T18:49:17.067Z,1016.84
2023-01-30T18:55:39.966Z,1016.88
2023-01-30T19:02:00.026Z,1016.92
2023-01-30T19:08:22.981Z,1016.97
2023-01-30T19:14:42.996Z,1017.05
2023-01-30T19:21:06.042Z,1017.05
2023-01-30T19:44:42.011Z,1017.27
2023-01-30T19:51:01.984Z,1017.38
2023-01-30T19:57:24.989Z,1017.54
2023-01-30T20:03:45.052Z,1017.62
2023-01-30T20:10:08.032Z,1017.68
2023-01-30T20:16:28.017Z,1017.72
2023-01-30T20:22:51.013Z,1017.76
2023-01-30T20:29:11.006Z,1017.81
2023-01-30T20:35:34.729Z,1017.89
2023-01-30T20:41:54.027Z,1017.93
2023-01-30T20:48:17.010Z,1017.95
2023-01-30T20:54:37.150Z,1018.03
2023-01-30T21:01:00.034Z,1018.15
2023-01-30T21:07:19.984Z,1018.27
2023-01-30T21:13:43.056Z,1018.37
2023-01-30T21:20:03.071Z,1018.41
2023-01-30T21:26:25.985Z,1018.45
2023-01-30T21:32:46.005Z,1018.45
2023-01-30T21:39:09.024Z,1018.45
2023-01-30T21:45:29.007Z,1018.59
2023-01-30T21:51:51.988Z,1018.71
2023-01-30T21:58:12.009Z,1018.86
2023-01-30T22:04:34.987Z,1018.94
2023-01-30T22:10:55.096Z,1018.98
2023-01-30T22:17:18.055Z,1019.08
2023-01-30T22:23:38.527Z,1019.15
2023-01-30T22:30:00.979Z,1019.23
2023-01-30T22:36:21.041Z,1019.23
2023-01-30T22:42:44.025Z,1019.25
2023-01-30T22:49:04.032Z,1019.27
2023-01-30T22:55:27.045Z,1019.29
2023-01-30T23:19:41.005Z,1019.37
2023-01-30T23:26:00.982Z,1019.39
2023-01-30T23:32:23.987Z,1019.35
2023-01-30T23:38:44.410Z,1019.35
2023-01-30T23:45:07.023Z,1019.35
2023-01-30T23:51:27.024Z,1019.31
2023-01-30T23:57:50.055Z,1019.33
